Time;durP1;ratioP1;P1;durP2;ratioP2;P2;SDS_P1;SDS_P2;PMS_P1;PMS_P2;Temp;Humidity;BMP_temperature;BMP_pressure;BME280_temperature;BME280_humidity;BME280_pressure;Samples;Min_cycle;Max_cycle;Signal;HPM_P1;HPM_P2
2023/01/12 00:00:04;;;;;;;6.38;2.08;;;;;;;9.58;100.00;100944.56;5304748;28;20027;-73
2023/01/12 00:02:35;;;;;;;9.10;1.95;;;;;;;9.63;100.00;100950.28;5307214;28;20419;-72
2023/01/12 00:05:07;;;;;;;9.15;1.85;;;;;;;9.62;100.00;100950.38;5307462;28;20023;-73
2023/01/12 00:07:38;;;;;;;12.50;2.30;;;;;;;9.66;100.00;100957.03;5302479;28;20020;-72
2023/01/12 00:10:09;;;;;;;10.75;2.75;;;;;;;9.70;100.00;100948.00;5303027;28;20059;-73
2023/01/12 00:12:41;;;;;;;9.02;2.35;;;;;;;9.74;100.00;100936.34;5305928;28;21091;-71
2023/01/12 00:15:12;;;;;;;10.50;2.10;;;;;;;9.68;100.00;100934.19;5306154;28;20028;-72
2023/01/12 00:17:43;;;;;;;9.45;3.17;;;;;;;9.71;100.00;100933.97;5305070;28;20023;-72
2023/01/12 00:20:15;;;;;;;9.27;2.13;;;;;;;9.69;100.00;100928.00;5306834;28;20032;-72
2023/01/12 00:22:48;;;;;;;10.88;2.10;;;;;;;9.71;100.00;100924.31;5303783;28;20024;-73
2023/01/12 00:25:19;;;;;;;12.30;3.33;;;;;;;9.74;100.00;100926.69;5303914;28;20085;-72
2023/01/12 00:27:50;;;;;;;11.15;2.50;;;;;;;9.80;100.00;100920.13;5305330;28;20024;-73
2023/01/12 00:30:22;;;;;;;8.77;2.45;;;;;;;9.80;100.00;100921.91;5291649;28;20107;-72
2023/01/12 00:32:53;;;;;;;10.77;2.60;;;;;;;9.81;100.00;100918.34;5304665;28;20024;-72
2023/01/12 00:35:24;;;;;;;9.32;2.33;;;;;;;9.75;100.00;100907.44;5304509;28;20032;-72
2023/01/12 00:37:55;;;;;;;12.88;2.70;;;;;;;9.78;100.00;100906.38;5301384;28;20059;-72
2023/01/12 00:40:27;;;;;;;10.20;2.70;;;;;;;9.83;100.00;100904.19;5305511;28;20036;-72
2023/01/12 00:45:49;;;;;;;11.95;2.88;;;;;;;9.88;100.00;100898.59;5305329;28;20036;-72
2023/01/12 00:48:21;;;;;;;14.20;2.95;;;;;;;9.83;100.00;100903.38;5285990;28;20039;-72
2023/01/12 00:50:53;;;;;;;10.10;2.65;;;;;;;9.93;100.00;100905.13;5296289;28;20035;-72
2023/01/12 00:53:24;;;;;;;11.90;3.40;;;;;;;9.90;100.00;100897.50;5294635;28;20028;-70
2023/01/12 00:56:00;;;;;;;10.77;2.85;;;;;;;9.94;100.00;100891.06;5293091;28;20040;-72
2023/01/12 00:58:31;;;;;;;12.05;2.75;;;;;;;9.91;100.00;100885.25;5295058;28;20036;-73
2023/01/12 01:01:07;;;;;;;10.05;2.67;;;;;;;10.01;100.00;100880.13;5295514;28;20063;-72
2023/01/12 01:03:38;;;;;;;9.43;2.45;;;;;;;10.01;100.00;100880.94;5294786;28;20020;-73
2023/01/12 01:06:10;;;;;;;9.75;2.60;;;;;;;9.95;100.00;100852.63;5299706;28;20028;-72
2023/01/12 01:08:41;;;;;;;10.40;2.95;;;;;;;9.98;100.00;100868.09;5301147;28;20085;-72
2023/01/12 01:11:13;;;;;;;11.48;3.00;;;;;;;9.91;100.00;100859.09;5303445;28;20078;-73
2023/01/12 01:13:45;;;;;;;11.57;3.35;;;;;;;9.88;100.00;100849.69;5303266;28;20023;-72
2023/01/12 01:16:17;;;;;;;11.95;3.40;;;;;;;9.90;100.00;100863.50;5300930;28;20031;-72
2023/01/12 01:18:48;;;;;;;11.35;3.15;;;;;;;9.92;100.00;100852.88;5302433;28;20532;-72
2023/01/12 01:21:19;;;;;;;13.43;2.83;;;;;;;9.94;100.00;100858.84;5303636;28;20537;-72
2023/01/12 01:23:51;;;;;;;16.67;3.70;;;;;;;9.88;100.00;100841.00;5304592;28;20504;-72
2023/01/12 01:26:23;;;;;;;13.60;3.50;;;;;;;9.99;100.00;100854.88;5302942;28;20028;-73
2023/01/12 01:28:55;;;;;;;14.05;3.50;;;;;;;9.97;100.00;100840.28;5305992;28;20047;-72
2023/01/12 01:31:26;;;;;;;18.33;4.45;;;;;;;9.92;100.00;100848.47;5302243;28;20032;-72
2023/01/12 01:33:58;;;;;;;17.65;3.65;;;;;;;9.99;100.00;100851.44;5301842;28;20030;-72
2023/01/12 01:36:29;;;;;;;15.25;3.83;;;;;;;9.96;100.00;100847.31;5304580;28;20032;-72
2023/01/12 01:39:00;;;;;;;15.13;3.33;;;;;;;9.93;100.00;100847.53;5303854;28;20028;-71
2023/01/12 01:41:32;;;;;;;15.95;3.75;;;;;;;9.91;100.00;100844.22;5304383;28;20019;-72
2023/01/12 01:44:28;;;;;;;14.45;2.85;;;;;;;10.09;100.00;100841.03;5307527;28;20132;-71
2023/01/12 01:47:09;;;;;;;15.15;3.60;;;;;;;9.96;100.00;100839.44;5306786;28;20088;-72
2023/01/12 01:49:50;;;;;;;14.30;3.42;;;;;;;9.99;100.00;100830.50;5304025;28;20093;-72
2023/01/12 01:52:30;;;;;;;16.15;4.20;;;;;;;9.96;100.00;100810.66;5307698;28;20082;-72
2023/01/12 01:55:25;;;;;;;16.15;3.67;;;;;;;9.89;100.00;100814.75;5302322;28;20134;-72
2023/01/12 01:58:01;;;;;;;16.42;4.38;;;;;;;9.87;100.00;100814.03;5304718;28;20078;-71
2023/01/12 02:00:32;;;;;;;19.63;4.40;;;;;;;9.83;100.00;100799.53;5305032;28;20442;-72
2023/01/12 02:03:07;;;;;;;15.02;3.75;;;;;;;9.88;100.00;100796.53;5309689;28;20318;-72
2023/01/12 02:05:42;;;;;;;18.00;4.05;;;;;;;9.90;100.00;100794.63;5309342;28;20028;-72
2023/01/12 02:08:42;;;;;;;18.92;3.90;;;;;;;9.95;100.00;100781.97;5305224;28;20129;-71
2023/01/12 02:17:13;;;;;;;14.13;3.45;;;;;;;9.96;100.00;100771.41;5305753;28;20043;-70
2023/01/12 02:20:12;;;;;;;15.43;4.03;;;;;;;10.05;100.00;100775.03;5283303;28;20043;-72
2023/01/12 02:23:20;;;;;;;11.52;2.85;;;;;;;10.12;100.00;100778.81;5303683;28;20030;-72
2023/01/12 02:26:10;;;;;;;17.45;3.90;;;;;;;10.03;100.00;100776.09;5302665;28;20395;-72
2023/01/12 02:28:59;;;;;;;17.92;3.33;;;;;;;10.05;100.00;100785.50;5307648;28;20032;-72
2023/01/12 02:32:09;;;;;;;16.17;3.47;;;;;;;10.03;100.00;100770.88;5302956;28;20032;-72
2023/01/12 02:34:52;;;;;;;16.00;3.38;;;;;;;9.90;100.00;100774.53;5287149;28;20408;-72
2023/01/12 02:37:46;;;;;;;15.20;3.63;;;;;;;10.22;100.00;100757.91;5303490;28;20023;-72
2023/01/12 02:40:59;;;;;;;15.05;3.60;;;;;;;10.17;100.00;100755.66;5291142;28;20071;-72
2023/01/12 02:43:34;;;;;;;15.30;4.03;;;;;;;10.06;100.00;100747.06;5302359;28;20031;-72
2023/01/12 02:46:22;;;;;;;14.95;3.20;;;;;;;10.18;100.00;100751.25;5286060;28;20031;-72
2023/01/12 02:49:03;;;;;;;16.73;3.80;;;;;;;10.04;100.00;100738.50;5304544;28;20050;-72
2023/01/12 02:51:59;;;;;;;19.63;3.83;;;;;;;10.14;100.00;100747.25;5301779;28;20028;-72
2023/01/12 02:54:33;;;;;;;15.23;3.60;;;;;;;10.07;100.00;100738.25;5294814;28;20036;-72
2023/01/12 02:57:07;;;;;;;15.63;3.30;;;;;;;10.02;100.00;100733.41;5306369;28;20111;-72
2023/01/12 02:59:42;;;;;;;14.98;3.88;;;;;;;10.05;100.00;100732.31;5303713;28;20035;-72
2023/01/12 03:02:17;;;;;;;14.48;3.10;;;;;;;10.03;100.00;100721.16;5300094;28;20439;-72
2023/01/12 03:04:49;;;;;;;13.90;2.97;;;;;;;9.93;100.00;100700.16;5303530;28;20028;-72
2023/01/12 03:07:33;;;;;;;10.60;2.90;;;;;;;10.09;100.00;100687.44;5304115;28;20038;-72
2023/01/12 03:10:15;;;;;;;14.82;2.85;;;;;;;10.07;100.00;100706.84;5305954;28;20033;-72
2023/01/12 03:12:50;;;;;;;16.42;3.75;;;;;;;9.98;100.00;100695.38;5304142;27;20024;-72
2023/01/12 03:15:23;;;;;;;14.43;3.10;;;;;;;10.05;100.00;100678.19;5307161;22;20044;-77
2023/01/12 03:18:02;;;;;;;17.77;3.95;;;;;;;10.07;100.00;100680.66;5300901;28;20074;-76
2023/01/12 03:20:38;;;;;;;14.35;2.78;;;;;;;9.97;100.00;100664.94;5286262;28;20039;-76
2023/01/12 03:23:21;;;;;;;13.30;2.85;;;;;;;10.03;100.00;100661.78;5304841;28;20069;-76
2023/01/12 03:25:54;;;;;;;;;;;;;;;10.47;100.00;100671.06;5276403;28;20050;-76
2023/01/12 03:28:31;;;;;;;11.18;2.85;;;;;;;10.04;100.00;100655.59;5299589;28;20041;-76
2023/01/12 03:31:08;;;;;;;11.82;2.90;;;;;;;10.08;100.00;100645.69;5307534;28;20118;-76
2023/01/12 03:33:41;;;;;;;8.68;2.53;;;;;;;10.02;100.00;100654.88;5299850;28;20089;-76
2023/01/12 03:36:31;;;;;;;9.75;2.80;;;;;;;10.05;100.00;100656.41;5303375;28;20081;-75
2023/01/12 03:39:02;;;;;;;15.10;2.65;;;;;;;10.04;100.00;100639.03;5304921;28;20016;-76
2023/01/12 03:41:44;;;;;;;9.50;2.53;;;;;;;9.98;100.00;100640.41;5306890;28;20080;-76
2023/01/12 03:44:23;;;;;;;12.07;2.08;;;;;;;10.07;100.00;100650.06;5297752;28;20353;-77
2023/01/12 03:47:00;;;;;;;8.57;2.22;;;;;;;9.92;100.00;100619.97;5302708;28;20054;-76
2023/01/12 03:49:38;;;;;;;8.02;2.13;;;;;;;9.95;100.00;100597.00;5300651;28;20026;-76
2023/01/12 03:52:11;;;;;;;9.80;2.33;;;;;;;9.91;100.00;100590.38;5302152;28;20026;-76
2023/01/12 03:54:45;;;;;;;11.88;3.35;;;;;;;9.95;100.00;100583.91;5300172;28;20036;-77
2023/01/12 03:57:17;;;;;;;8.18;2.38;;;;;;;10.03;100.00;100561.50;5303703;28;20081;-77
2023/01/12 03:59:48;;;;;;;9.60;2.20;;;;;;;9.93;100.00;100553.63;5305384;28;20024;-76
2023/01/12 04:02:20;;;;;;;8.63;2.15;;;;;;;9.98;100.00;100559.28;5303575;28;20447;-76
2023/01/12 04:04:52;;;;;;;10.37;2.50;;;;;;;9.91;100.00;100553.75;5305696;28;20027;-76
2023/01/12 04:07:23;;;;;;;7.68;1.88;;;;;;;9.97;100.00;100549.78;5300523;28;20291;-76
2023/01/12 04:09:56;;;;;;;10.60;2.42;;;;;;;9.89;100.00;100545.22;5303600;28;20019;-76
2023/01/12 04:12:27;;;;;;;12.13;2.90;;;;;;;9.87;100.00;100539.28;5303178;28;20123;-75
2023/01/12 04:14:58;;;;;;;15.27;2.80;;;;;;;9.95;100.00;100528.13;5304329;28;20377;-76
2023/01/12 04:17:29;;;;;;;12.20;3.00;;;;;;;9.95;100.00;100510.66;5305311;28;20035;-76
2023/01/12 04:20:01;;;;;;;10.50;3.00;;;;;;;10.03;100.00;100522.22;5307182;28;20019;-76
2023/01/12 04:22:44;;;;;;;11.52;2.65;;;;;;;10.01;100.00;100524.16;5305854;28;20499;-76
2023/01/12 04:25:19;;;;;;;11.43;2.72;;;;;;;10.04;100.00;100506.41;5303678;28;20031;-75
2023/01/12 04:27:54;;;;;;;13.38;2.70;;;;;;;10.03;100.00;100514.38;5285588;28;20020;-76
2023/01/12 04:30:27;;;;;;;12.93;2.75;;;;;;;9.97;100.00;100506.13;5304027;28;20548;-75
2023/01/12 04:32:59;;;;;;;12.30;2.83;;;;;;;10.10;100.00;100494.56;5306461;28;20032;-75
2023/01/12 04:35:31;;;;;;;14.40;2.92;;;;;;;9.91;100.00;100485.72;5285315;28;20271;-75
2023/01/12 04:38:07;;;;;;;10.05;2.72;;;;;;;9.95;100.00;100467.94;5305207;28;20058;-75
2023/01/12 04:40:38;;;;;;;13.15;2.60;;;;;;;9.86;100.00;100485.28;5304337;28;20028;-76
2023/01/12 04:43:10;;;;;;;8.50;2.50;;;;;;;9.77;100.00;100459.09;5303403;28;20029;-76
2023/01/12 04:45:42;;;;;;;11.20;2.63;;;;;;;9.88;100.00;100451.97;5307191;28;20027;-76
2023/01/12 04:48:15;;;;;;;12.38;3.08;;;;;;;9.84;100.00;100440.09;5316979;28;20035;-76
2023/01/12 04:50:48;;;;;;;9.00;2.20;;;;;;;9.89;100.00;100416.19;5311470;28;20028;-76
2023/01/12 04:53:20;;;;;;;;;;;;;;;10.44;100.00;100417.28;5292490;28;20021;-76
2023/01/12 04:55:52;;;;;;;9.85;2.58;;;;;;;9.96;100.00;100409.41;5309035;28;19920;-75
2023/01/12 04:58:23;;;;;;;10.20;3.08;;;;;;;9.81;100.00;100422.09;5308215;28;20295;-77
2023/01/12 05:00:54;;;;;;;8.20;2.53;;;;;;;9.83;100.00;100430.63;5286465;28;20035;-76
2023/01/12 05:03:25;;;;;;;10.48;2.72;;;;;;;9.81;100.00;100429.94;5289476;28;20032;-75
2023/01/12 05:05:57;;;;;;;10.98;2.72;;;;;;;9.85;100.00;100441.78;5302815;28;20396;-75
2023/01/12 05:11:20;;;;;;;14.02;2.85;;;;;;;9.82;100.00;100415.88;5303400;28;20162;-75
2023/01/12 05:13:51;;;;;;;9.02;2.67;;;;;;;9.83;100.00;100407.06;5303147;28;20358;-75
2023/01/12 05:16:22;;;;;;;9.55;2.38;;;;;;;9.86;100.00;100417.25;5308729;28;20044;-75
2023/01/12 05:18:54;;;;;;;11.55;3.10;;;;;;;9.86;100.00;100401.56;5308536;28;20437;-76
2023/01/12 05:21:25;;;;;;;14.35;2.70;;;;;;;9.90;100.00;100416.03;5313034;28;20074;-75
2023/01/12 05:23:56;;;;;;;11.38;2.40;;;;;;;9.89;100.00;100422.22;5310550;28;20024;-75
2023/01/12 05:26:28;;;;;;;11.20;2.35;;;;;;;9.93;100.00;100421.00;5294478;28;20468;-75
2023/01/12 05:28:59;;;;;;;9.68;2.55;;;;;;;9.85;100.00;100415.63;5304408;28;20043;-76
2023/01/12 05:31:32;;;;;;;12.82;2.75;;;;;;;9.93;100.00;100415.75;5310101;28;20119;-75
2023/01/12 05:34:03;;;;;;;;;;;;;;;10.37;100.00;100418.81;5308269;28;20059;-75
2023/01/12 05:36:35;;;;;;;9.33;2.30;;;;;;;9.97;100.00;100398.81;5310833;28;19961;-75
2023/01/12 05:39:06;;;;;;;10.07;2.33;;;;;;;9.90;100.00;100402.94;5312109;28;20269;-77
2023/01/12 05:43:48;;;;;;;10.70;2.40;;;;;;;9.90;100.00;100423.88;5310909;28;20024;-75
2023/01/12 05:44:29;;;;;;;11.35;2.53;;;;;;;9.92;100.00;100418.50;5302501;28;20040;-75
2023/01/12 05:47:00;;;;;;;8.23;2.10;;;;;;;9.97;100.00;100406.66;5308241;28;20069;-75
2023/01/12 05:49:31;;;;;;;9.30;2.20;;;;;;;9.97;100.00;100418.94;5290623;28;20038;-76
2023/01/12 05:52:03;;;;;;;8.48;2.20;;;;;;;10.01;100.00;100407.22;5288880;28;20081;-76
2023/01/12 05:54:34;;;;;;;7.15;2.03;;;;;;;10.00;100.00;100416.06;5302729;28;20032;-76
2023/01/12 05:57:05;;;;;;;9.27;2.33;;;;;;;9.99;100.00;100411.75;5303585;28;20024;-76
2023/01/12 05:59:36;;;;;;;9.50;2.03;;;;;;;10.05;100.00;100392.91;5306619;28;20038;-76
2023/01/12 06:02:10;;;;;;;12.82;2.45;;;;;;;10.03;100.00;100410.53;5296691;28;20027;-76
2023/01/12 06:04:42;;;;;;;9.80;1.92;;;;;;;10.04;100.00;100390.41;5286484;28;20476;-76
2023/01/12 06:07:15;;;;;;;5.43;1.50;;;;;;;10.02;100.00;100382.69;5289005;28;20112;-76
2023/01/12 06:09:46;;;;;;;9.98;2.38;;;;;;;10.02;100.00;100395.78;5303591;28;20024;-76
2023/01/12 06:15:08;;;;;;;9.10;2.28;;;;;;;10.13;100.00;100410.53;5306991;28;20497;-76
2023/01/12 06:17:39;;;;;;;8.68;2.78;;;;;;;10.07;100.00;100397.97;5303325;28;20027;-76
2023/01/12 06:20:15;;;;;;;10.20;2.40;;;;;;;10.02;100.00;100413.28;5309798;28;20035;-75
2023/01/12 06:22:47;;;;;;;7.18;1.70;;;;;;;10.05;100.00;100399.94;5300170;28;20027;-75
2023/01/12 06:25:18;;;;;;;4.05;1.45;;;;;;;10.17;100.00;100409.28;5302418;28;20031;-75
2023/01/12 06:27:49;;;;;;;6.80;1.80;;;;;;;10.16;100.00;100410.25;5305556;28;20465;-75
2023/01/12 06:30:21;;;;;;;5.47;1.52;;;;;;;10.24;100.00;100410.41;5306993;28;20036;-75
2023/01/12 06:32:52;;;;;;;7.10;1.60;;;;;;;10.21;100.00;100411.50;5288866;28;20024;-75
2023/01/12 06:35:23;;;;;;;5.13;1.30;;;;;;;10.20;100.00;100415.06;5306712;28;20049;-75
2023/01/12 06:37:56;;;;;;;7.75;1.48;;;;;;;10.25;100.00;100417.31;5306779;28;20460;-75
2023/01/12 06:40:27;;;;;;;7.65;1.50;;;;;;;10.20;100.00;100401.16;5302802;28;20488;-75
2023/01/12 06:42:58;;;;;;;3.85;1.30;;;;;;;10.18;100.00;100405.69;5306382;28;20020;-77
2023/01/12 06:45:29;;;;;;;3.78;1.35;;;;;;;10.24;100.00;100397.31;5308532;28;20042;-76
2023/01/12 06:48:01;;;;;;;5.75;1.40;;;;;;;10.28;100.00;100409.19;5310797;28;20102;-75
2023/01/12 06:50:34;;;;;;;5.22;1.15;;;;;;;10.30;100.00;100404.63;5311543;28;20055;-75
2023/01/12 06:53:06;;;;;;;4.22;1.23;;;;;;;10.29;100.00;100415.25;5312079;28;20043;-76
2023/01/12 06:55:37;;;;;;;5.97;1.35;;;;;;;10.34;100.00;100402.56;5301596;28;20146;-75
2023/01/12 06:58:08;;;;;;;4.40;1.27;;;;;;;10.32;100.00;100396.63;5302733;28;20114;-75
2023/01/12 07:00:39;;;;;;;7.43;1.33;;;;;;;10.31;100.00;100389.75;5309400;28;20027;-75
2023/01/12 07:03:18;;;;;;;3.88;1.13;;;;;;;10.38;100.00;100391.69;5304115;28;20056;-76
2023/01/12 07:05:50;;;;;;;5.88;1.08;;;;;;;10.23;100.00;100399.09;5300647;28;20034;-76
2023/01/12 07:08:21;;;;;;;3.53;1.10;;;;;;;10.31;100.00;100389.75;5282373;28;20400;-76
2023/01/12 07:10:52;;;;;;;4.10;1.05;;;;;;;10.13;100.00;100389.59;5300898;28;20043;-76
2023/01/12 07:13:24;;;;;;;5.82;1.10;;;;;;;10.25;100.00;100401.59;5305867;28;20081;-76
2023/01/12 07:15:58;;;;;;;4.45;0.85;;;;;;;10.27;100.00;100399.69;5305906;28;20032;-75
2023/01/12 07:18:30;;;;;;;6.20;1.40;;;;;;;10.20;100.00;100404.59;5305756;28;20032;-76
2023/01/12 07:21:05;;;;;;;3.00;0.95;;;;;;;10.25;100.00;100385.88;5307101;28;20093;-76
2023/01/12 07:23:37;;;;;;;3.10;1.17;;;;;;;10.27;100.00;100410.16;5297872;28;20019;-76
2023/01/12 07:26:12;;;;;;;6.47;1.20;;;;;;;10.36;100.00;100409.31;5302518;28;20096;-76
2023/01/12 07:28:43;;;;;;;5.45;1.45;;;;;;;10.35;100.00;100412.06;5302966;28;20051;-77
2023/01/12 07:31:14;;;;;;;3.75;1.23;;;;;;;10.33;100.00;100399.09;5286476;28;20058;-77
2023/01/12 07:33:51;;;;;;;2.90;1.05;;;;;;;10.40;100.00;100407.25;5286495;28;20138;-75
2023/01/12 07:36:22;;;;;;;3.85;1.10;;;;;;;10.29;100.00;100399.53;5304429;28;20090;-76
2023/01/12 07:38:53;;;;;;;6.88;1.88;;;;;;;10.38;100.00;100410.00;5300065;28;20552;-75
2023/01/12 07:44:15;;;;;;;4.25;1.35;;;;;;;10.38;100.00;100406.53;5303908;28;20035;-76
2023/01/12 07:46:46;;;;;;;4.30;1.30;;;;;;;10.41;100.00;100424.59;5307801;28;20027;-74
2023/01/12 07:49:17;;;;;;;5.20;1.17;;;;;;;10.42;100.00;100429.72;5287214;28;20455;-75
2023/01/12 07:51:51;;;;;;;3.55;1.23;;;;;;;10.52;100.00;100423.63;5302663;28;20032;-76
2023/01/12 07:54:23;;;;;;;5.55;1.45;;;;;;;10.43;100.00;100418.25;5295937;28;20032;-75
2023/01/12 07:56:54;;;;;;;4.47;1.20;;;;;;;10.46;100.00;100435.50;5286557;28;20081;-76
2023/01/12 07:59:26;;;;;;;3.92;0.90;;;;;;;10.50;100.00;100425.56;5302304;28;20034;-76
2023/01/12 08:01:57;;;;;;;3.85;1.15;;;;;;;10.52;100.00;100439.34;5303697;28;20020;-75
2023/01/12 08:04:29;;;;;;;3.55;0.90;;;;;;;10.56;100.00;100451.19;5287027;28;20226;-77
2023/01/12 08:07:00;;;;;;;3.75;1.25;;;;;;;10.53;100.00;100441.84;5296947;28;20024;-75
2023/01/12 08:09:31;;;;;;;4.53;1.20;;;;;;;10.50;100.00;100446.53;5301377;28;20471;-76
2023/01/12 08:12:04;;;;;;;3.90;1.20;;;;;;;10.55;100.00;100460.03;5283964;28;20032;-77
2023/01/12 08:14:37;;;;;;;;;;;;;;;11.04;100.00;100448.47;5300463;28;20032;-76
2023/01/12 08:17:17;;;;;;;3.83;1.00;;;;;;;10.64;100.00;100456.56;5303979;28;20299;-76
2023/01/12 08:19:54;;;;;;;4.75;1.25;;;;;;;10.67;100.00;100454.47;5301729;28;20048;-75
2023/01/12 08:22:34;;;;;;;5.10;1.20;;;;;;;10.65;100.00;100455.59;5301964;28;20023;-75
2023/01/12 08:25:11;;;;;;;2.63;0.90;;;;;;;10.72;100.00;100480.28;5300442;28;20423;-76
2023/01/12 08:27:46;;;;;;;4.97;1.33;;;;;;;10.73;100.00;100473.25;5297029;28;20031;-74
2023/01/12 08:30:21;;;;;;;4.35;1.27;;;;;;;10.77;100.00;100472.00;5304254;28;20035;-78
2023/01/12 08:32:59;;;;;;;3.80;1.00;;;;;;;10.76;100.00;100479.03;5283687;28;20025;-76
2023/01/12 08:35:33;;;;;;;2.05;0.90;;;;;;;10.81;100.00;100470.75;5299256;28;20031;-75
2023/01/12 08:38:04;;;;;;;4.28;0.90;;;;;;;10.75;100.00;100485.22;5280740;28;20546;-74
2023/01/12 08:46:16;;;;;;;2.45;0.88;;;;;;;10.82;100.00;100488.94;5305401;28;20461;-74
2023/01/12 08:48:47;;;;;;;4.72;1.10;;;;;;;10.81;100.00;100491.72;5296705;28;20028;-75
2023/01/12 08:51:19;;;;;;;2.78;1.20;;;;;;;10.83;100.00;100498.44;5284388;28;20449;-76
2023/01/12 08:53:50;;;;;;;2.80;1.00;;;;;;;10.80;100.00;100487.44;5305250;28;20656;-75
2023/01/12 08:56:22;;;;;;;3.63;1.00;;;;;;;10.89;100.00;100504.94;5304906;28;20020;-76
2023/01/12 08:58:53;;;;;;;2.47;1.17;;;;;;;10.89;100.00;100491.84;5301077;28;20027;-75
2023/01/12 09:01:24;;;;;;;2.35;0.90;;;;;;;10.88;100.00;100491.00;5300263;28;20026;-76
2023/01/12 09:03:57;;;;;;;4.10;1.00;;;;;;;10.92;100.00;100495.00;5302664;28;20363;-75
2023/01/12 09:06:35;;;;;;;4.90;1.08;;;;;;;11.07;100.00;100498.00;5281542;28;20054;-78
2023/01/12 09:09:09;;;;;;;5.45;1.35;;;;;;;11.03;100.00;100493.19;5300126;28;20019;-78
2023/01/12 09:11:41;;;;;;;3.58;1.00;;;;;;;11.07;100.00;100508.50;5302592;28;20032;-74
2023/01/12 09:14:14;;;;;;;3.72;1.00;;;;;;;11.11;100.00;100511.66;5306433;28;20031;-75
2023/01/12 09:16:45;;;;;;;2.72;1.00;;;;;;;11.03;100.00;100504.50;5299470;28;20036;-75
2023/01/12 09:19:17;;;;;;;3.10;0.88;;;;;;;11.09;100.00;100521.44;5301153;28;20044;-74
2023/01/12 09:21:48;;;;;;;3.92;1.00;;;;;;;11.08;100.00;100509.31;5283585;28;20106;-76
2023/01/12 09:24:20;;;;;;;3.22;1.13;;;;;;;11.19;100.00;100517.00;5299852;28;20024;-76
2023/01/12 09:26:51;;;;;;;3.88;1.27;;;;;;;11.20;100.00;100511.63;5284628;28;20392;-75
2023/01/12 09:29:22;;;;;;;3.58;0.85;;;;;;;11.20;100.00;100516.84;5290204;28;20126;-76
2023/01/12 09:31:53;;;;;;;2.80;0.90;;;;;;;11.14;100.00;100517.44;5303768;28;20092;-76
2023/01/12 09:34:25;;;;;;;3.85;0.82;;;;;;;11.14;100.00;100516.63;5291258;28;20568;-75
2023/01/12 09:36:58;;;;;;;2.40;1.08;;;;;;;11.11;100.00;100525.59;5301837;28;20024;-76
2023/01/12 09:39:29;;;;;;;2.22;0.90;;;;;;;11.11;100.00;100517.72;5301713;28;20015;-76
2023/01/12 09:47:56;;;;;;;2.95;1.10;;;;;;;11.36;100.00;100525.94;5296196;28;20010;-75
2023/01/12 09:50:32;;;;;;;1.55;0.60;;;;;;;11.18;100.00;100525.84;5299020;28;20081;-75
2023/01/12 09:53:11;;;;;;;1.58;0.63;;;;;;;11.28;100.00;100541.56;5303913;28;20024;-76
2023/01/12 09:56:01;;;;;;;2.53;0.90;;;;;;;11.34;100.00;100544.44;5304558;28;20049;-77
2023/01/12 09:59:06;;;;;;;1.92;0.82;;;;;;;11.30;100.00;100550.13;5305252;28;20024;-75
2023/01/12 10:01:37;;;;;;;1.52;0.68;;;;;;;11.19;100.00;100541.44;5302708;28;20056;-76
2023/01/12 10:04:09;;;;;;;2.25;0.80;;;;;;;11.22;100.00;100548.19;5298195;28;20034;-76
2023/01/12 10:06:40;;;;;;;1.75;0.60;;;;;;;11.21;100.00;100536.03;5292621;28;20040;-75
2023/01/12 10:09:17;;;;;;;1.98;0.80;;;;;;;11.35;100.00;100543.47;5291653;28;20031;-75
2023/01/12 10:12:03;;;;;;;2.35;0.73;;;;;;;11.43;100.00;100554.06;5293842;28;20471;-76
2023/01/12 10:14:47;;;;;;;2.17;1.00;;;;;;;11.47;100.00;100557.22;5297705;28;20084;-76
2023/01/12 10:17:38;;;;;;;2.22;0.70;;;;;;;11.49;100.00;100552.69;5301563;28;20097;-75
2023/01/12 10:20:45;;;;;;;1.33;0.65;;;;;;;11.57;100.00;100557.22;5301498;28;20126;-77
2023/01/12 10:23:23;;;;;;;1.70;0.70;;;;;;;11.22;100.00;100556.06;5232360;28;20053;-74
2023/01/12 10:26:26;;;;;;;2.08;0.57;;;;;;;11.42;100.00;100548.97;5291763;28;20102;-75
2023/01/12 10:29:01;;;;;;;2.03;0.73;;;;;;;11.30;100.00;100544.88;5288424;28;20032;-76
2023/01/12 10:31:32;;;;;;;1.27;0.50;;;;;;;11.26;100.00;100546.94;5303264;28;20028;-75
2023/01/12 10:34:05;;;;;;;2.20;0.68;;;;;;;11.31;100.00;100546.53;5286176;28;20450;-77
2023/01/12 10:36:44;;;;;;;3.13;0.80;;;;;;;11.45;100.00;100551.31;5304771;28;20028;-77
2023/01/12 10:39:30;;;;;;;1.73;0.60;;;;;;;11.50;100.00;100541.22;5302496;28;20036;-74
2023/01/12 10:43:17;;;;;;;1.70;0.52;;;;;;;11.46;100.00;100534.59;5291213;28;20038;-74
2023/01/12 10:45:20;;;;;;;1.25;0.50;;;;;;;11.50;100.00;100541.22;5311228;28;20040;-74
2023/01/12 10:47:53;;;;;;;2.05;0.52;;;;;;;11.41;100.00;100544.72;5307586;28;20468;-75
2023/01/12 10:50:27;;;;;;;1.30;0.50;;;;;;;11.45;100.00;100541.66;5306074;28;20040;-74
2023/01/12 10:53:05;;;;;;;1.85;0.70;;;;;;;11.51;100.00;100545.47;5306063;28;20024;-75
2023/01/12 10:55:39;;;;;;;1.05;0.40;;;;;;;11.37;100.00;100544.16;5306182;28;20031;-75
2023/01/12 10:58:40;;;;;;;1.13;0.52;;;;;;;11.65;100.00;100552.88;5303509;28;20028;-75
2023/01/12 11:01:12;;;;;;;1.10;0.50;;;;;;;11.38;100.00;100543.19;5286206;28;20051;-75
2023/01/12 11:03:43;;;;;;;1.77;0.63;;;;;;;11.35;100.00;100563.63;5283823;28;20529;-75
2023/01/12 11:06:23;;;;;;;1.92;0.60;;;;;;;11.53;100.00;100555.84;5302813;28;20069;-76
2023/01/12 11:08:54;;;;;;;2.40;0.70;;;;;;;11.49;100.00;100557.09;5303647;28;20051;-75
2023/01/12 11:11:31;;;;;;;1.48;0.50;;;;;;;11.44;100.00;100553.13;5305561;28;20139;-77
2023/01/12 11:14:03;;;;;;;1.58;0.60;;;;;;;11.45;100.00;100548.69;5279273;28;20058;-76
2023/01/12 11:16:46;;;;;;;1.25;0.63;;;;;;;11.64;100.00;100560.91;5302888;28;20789;-76
2023/01/12 11:19:20;;;;;;;2.08;0.52;;;;;;;11.54;100.00;100553.06;5303214;28;20558;-78
2023/01/12 11:22:01;;;;;;;1.33;0.50;;;;;;;11.61;100.00;100553.31;5300748;28;20028;-79
2023/01/12 11:24:56;;;;;;;1.70;0.52;;;;;;;11.72;100.00;100553.16;5300371;28;20031;-78
2023/01/12 11:27:34;;;;;;;0.95;0.50;;;;;;;11.58;100.00;100549.19;5285283;28;20040;-78
2023/01/12 11:30:17;;;;;;;2.25;0.70;;;;;;;11.71;100.00;100548.88;5286043;28;20513;-76
2023/01/12 11:32:55;;;;;;;1.15;0.50;;;;;;;11.66;100.00;100537.97;5305406;28;20106;-77
2023/01/12 11:35:45;;;;;;;2.50;0.50;;;;;;;11.79;100.00;100550.78;5284786;28;20054;-76
2023/01/12 11:38:32;;;;;;;1.02;0.60;;;;;;;11.63;100.00;100549.59;5283044;28;20035;-77
2023/01/12 11:41:09;;;;;;;1.55;0.60;;;;;;;11.64;100.00;100545.19;5284726;28;20086;-76
2023/01/12 11:43:55;;;;;;;0.95;0.45;;;;;;;11.57;100.00;100547.53;5305129;28;20035;-75
2023/01/12 11:46:50;;;;;;;1.00;0.65;;;;;;;11.75;100.00;100529.25;5301304;28;20024;-79
2023/01/12 11:49:28;;;;;;;1.23;0.63;;;;;;;11.64;100.00;100534.69;5310082;28;20024;-76
2023/01/12 11:52:01;;;;;;;1.17;0.60;;;;;;;11.56;100.00;100534.56;5303522;28;20024;-77
2023/01/12 11:54:32;;;;;;;;;;;;;;;11.89;100.00;100528.78;5306504;28;20037;-75
2023/01/12 11:57:19;;;;;;;1.70;0.70;;;;;;;11.74;100.00;100534.63;5289035;28;19915;-80
2023/01/12 12:00:18;;;;;;;1.15;0.65;;;;;;;11.48;100.00;100530.06;5299459;28;20274;-79
2023/01/12 12:03:13;;;;;;;1.48;0.50;;;;;;;11.48;100.00;100521.31;5301779;28;20069;-77
2023/01/12 12:05:48;;;;;;;1.60;0.60;;;;;;;11.54;100.00;100515.50;5304671;28;20482;-75
2023/01/12 12:08:28;;;;;;;2.78;0.90;;;;;;;11.48;100.00;100526.56;5303277;28;20263;-76
2023/01/12 12:11:10;;;;;;;3.58;0.60;;;;;;;11.57;100.00;100512.59;5304971;28;20047;-75
2023/01/12 12:14:07;;;;;;;1.38;0.55;;;;;;;11.44;100.00;100515.56;5305316;28;20051;-77
2023/01/12 12:17:08;;;;;;;1.13;0.52;;;;;;;11.66;100.00;100515.19;5289905;28;20048;-76
2023/01/12 12:19:46;;;;;;;1.63;0.65;;;;;;;11.55;100.00;100522.41;5268509;28;20374;-79
2023/01/12 12:22:46;;;;;;;2.55;0.65;;;;;;;11.66;100.00;100511.72;5307731;28;20484;-75
2023/01/12 12:25:33;;;;;;;3.15;0.80;;;;;;;11.65;100.00;100517.97;5301781;28;20042;-76
2023/01/12 12:28:41;;;;;;;1.63;0.70;;;;;;;11.58;100.00;100514.25;5297105;28;20476;-76